createdAt,value
2019-04-11T00:01:51.603Z,12.55
2019-04-11T00:04:44.726Z,13.28
2019-04-11T00:07:40.465Z,12.95
2019-04-11T00:10:37.402Z,13.70
2019-04-11T00:13:35.217Z,13.72
2019-04-11T00:16:29.163Z,13.65
2019-04-11T00:19:24.288Z,13.55
2019-04-11T00:22:19.476Z,12.80
2019-04-11T00:25:15.583Z,13.88
2019-04-11T00:28:10.935Z,13.90
2019-04-11T00:31:06.348Z,14.07
2019-04-11T00:34:02.504Z,14.60
2019-04-11T00:36:58.820Z,13.65
2019-04-11T00:39:54.143Z,14.85
2019-04-11T00:42:49.145Z,14.43
2019-04-11T00:45:44.184Z,14.55
2019-04-11T00:48:39.450Z,14.53
2019-04-11T00:51:34.627Z,15.15
2019-04-11T00:54:30.973Z,15.60
2019-04-11T00:57:26.114Z,14.90
2019-04-11T01:00:22.857Z,15.10
2019-04-11T01:03:17.993Z,15.68
2019-04-11T01:06:14.090Z,14.85
2019-04-11T01:09:11.007Z,14.98
2019-04-11T01:12:05.942Z,15.10
2019-04-11T01:15:01.173Z,15.00
2019-04-11T01:17:57.931Z,15.15
2019-04-11T01:20:53.677Z,15.60
2019-04-11T01:23:48.545Z,15.05
2019-04-11T01:26:45.528Z,14.93
2019-04-11T01:29:41.807Z,15.70
2019-04-11T01:32:38.114Z,16.07
2019-04-11T01:35:33.234Z,15.30
2019-04-11T01:38:30.495Z,15.80
2019-04-11T01:41:26.420Z,15.38
2019-04-11T01:44:22.719Z,16.00
2019-04-11T01:47:24.954Z,16.20
2019-04-11T01:50:23.594Z,16.15
2019-04-11T01:53:19.227Z,14.93
2019-04-11T01:56:14.860Z,15.55
2019-04-11T01:59:11.035Z,16.10
2019-04-11T02:02:17.576Z,15.53
2019-04-11T02:05:25.460Z,15.65
2019-04-11T02:08:20.786Z,16.73
2019-04-11T02:11:16.949Z,15.70
2019-04-11T02:14:16.225Z,15.93
2019-04-11T02:17:08.750Z,15.53
2019-04-11T02:20:05.316Z,17.45
2019-04-11T02:23:07.636Z,16.30
2019-04-11T02:26:23.476Z,15.65
2019-04-11T02:29:19.380Z,16.02
2019-04-11T02:32:15.853Z,15.93
2019-04-11T02:35:12.955Z,16.70
2019-04-11T02:38:11.809Z,16.67
2019-04-11T02:41:08.599Z,16.23
2019-04-11T02:44:05.734Z,16.32
2019-04-11T02:47:08.342Z,16.97
2019-04-11T02:49:57.442Z,16.62
2019-04-11T02:52:54.556Z,16.90
2019-04-11T02:55:52.075Z,17.27
2019-04-11T02:58:48.260Z,17.42
2019-04-11T03:01:44.018Z,16.45
2019-04-11T03:04:41.789Z,16.95
2019-04-11T03:07:38.049Z,17.02
2019-04-11T03:10:36.076Z,17.48
2019-04-11T03:13:30.838Z,17.48
2019-04-11T03:16:39.357Z,17.57
2019-04-11T03:19:37.529Z,17.62
2019-04-11T03:22:22.629Z,17.57
2019-04-11T03:25:18.473Z,17.12
2019-04-11T03:28:18.359Z,17.37
2019-04-11T03:31:42.129Z,16.87
2019-04-11T03:37:25.897Z,17.07
2019-04-11T03:40:23.403Z,17.65
2019-04-11T03:43:08.919Z,17.85
2019-04-11T03:46:16.105Z,17.77
2019-04-11T03:49:02.635Z,17.30
2019-04-11T03:51:50.696Z,18.07
2019-04-11T03:54:47.389Z,17.73
2019-04-11T03:57:42.513Z,18.02
2019-04-11T04:00:41.449Z,17.92
2019-04-11T04:03:34.272Z,17.90
2019-04-11T04:06:31.016Z,18.10
2019-04-11T04:09:28.649Z,19.90
2019-04-11T04:12:23.535Z,17.42
2019-04-11T04:16:00.168Z,16.90
2019-04-11T04:18:58.505Z,16.37
2019-04-11T04:22:15.763Z,15.80
2019-04-11T04:25:12.418Z,15.58
2019-04-11T04:28:07.915Z,15.00
2019-04-11T04:31:04.575Z,15.50
2019-04-11T04:33:59.618Z,15.32
2019-04-11T04:36:55.684Z,14.40
2019-04-11T04:40:12.254Z,14.28
2019-04-11T04:42:52.049Z,14.87
2019-04-11T04:46:04.877Z,15.53
2019-04-11T04:48:40.997Z,14.55
2019-04-11T04:51:39.027Z,14.33
2019-04-11T04:54:36.141Z,15.00
2019-04-11T04:57:31.765Z,14.58
2019-04-11T05:00:32.158Z,15.40
2019-04-11T05:03:29.649Z,16.25
2019-04-11T05:06:26.083Z,17.17
2019-04-11T05:09:21.441Z,16.48
2019-04-11T05:12:22.616Z,18.40
2019-04-11T05:15:20.892Z,18.45
2019-04-11T05:18:18.066Z,17.77
2019-04-11T05:21:17.173Z,18.25
2019-04-11T05:24:15.002Z,17.80
2019-04-11T05:27:14.639Z,18.07
2019-04-11T05:30:11.173Z,18.48
2019-04-11T05:33:09.493Z,17.98
2019-04-11T05:36:08.458Z,18.67
2019-04-11T05:39:06.540Z,18.17
2019-04-11T05:42:03.057Z,19.20
2019-04-11T05:44:59.536Z,18.75
2019-04-11T05:47:59.385Z,19.17
2019-04-11T05:51:03.067Z,20.05
2019-04-11T05:54:09.209Z,20.52
2019-04-11T05:57:09.010Z,20.35
2019-04-11T06:00:16.190Z,19.90
2019-04-11T06:03:19.975Z,20.80
2019-04-11T06:06:38.526Z,20.17
2019-04-11T06:14:40.089Z,19.92
2019-04-11T06:19:00.493Z,20.30
2019-04-11T06:22:27.128Z,21.30
2019-04-11T06:25:44.546Z,21.33
2019-04-11T06:32:58.360Z,21.68
2019-04-11T06:38:49.372Z,21.15
2019-04-11T06:39:47.987Z,20.25
2019-04-11T06:42:49.722Z,21.27
2019-04-11T06:46:14.449Z,20.55
2019-04-11T06:49:18.821Z,21.33
2019-04-11T06:52:18.882Z,22.00
2019-04-11T06:55:33.156Z,20.57
2019-04-11T06:58:43.809Z,21.10
2019-04-11T07:02:36.916Z,21.25
2019-04-11T07:05:38.620Z,20.35
2019-04-11T07:09:44.979Z,20.48
2019-04-11T07:12:59.315Z,19.70
2019-04-11T07:15:58.150Z,19.98
2019-04-11T07:19:13.463Z,20.30
2019-04-11T07:22:26.994Z,20.57
2019-04-11T07:25:39.522Z,20.32
2019-04-11T07:29:13.161Z,19.87
2019-04-11T07:32:22.294Z,20.17
2019-04-11T07:35:29.352Z,19.42
2019-04-11T07:38:34.382Z,19.55
2019-04-11T07:42:02.853Z,20.72
2019-04-11T07:45:51.772Z,19.80
2019-04-11T07:48:48.087Z,18.35
2019-04-11T07:52:06.695Z,19.65
2019-04-11T07:55:06.748Z,19.45
2019-04-11T07:58:23.786Z,19.45
2019-04-11T08:01:38.227Z,19.60
2019-04-11T08:04:53.225Z,18.52
2019-04-11T08:08:15.257Z,19.50
2019-04-11T08:11:40.104Z,19.20
2019-04-11T08:18:20.862Z,19.12
2019-04-11T08:22:00.877Z,19.05
2019-04-11T08:25:42.521Z,19.45
2019-04-11T08:28:45.505Z,18.35
2019-04-11T08:32:04.638Z,19.60
2019-04-11T08:35:19.766Z,19.55
2019-04-11T08:38:34.269Z,19.17
2019-04-11T08:41:51.645Z,18.92
2019-04-11T08:44:52.214Z,20.00
2019-04-11T08:47:57.263Z,19.62
2019-04-11T08:50:58.876Z,19.25
2019-04-11T08:54:13.594Z,19.60
2019-04-11T08:57:10.115Z,20.48
2019-04-11T09:00:26.423Z,19.98
2019-04-11T09:04:07.972Z,18.15
2019-04-11T09:07:05.283Z,18.57
2019-04-11T09:10:17.956Z,18.98
2019-04-11T09:13:33.586Z,19.98
2019-04-11T09:17:26.175Z,18.27
2019-04-11T09:21:05.581Z,19.30
2019-04-11T09:24:06.121Z,18.07
2019-04-11T09:27:17.724Z,18.35
2019-04-11T09:30:25.053Z,17.77
2019-04-11T09:33:57.568Z,18.62
2019-04-11T09:37:03.631Z,18.62
2019-04-11T09:40:47.900Z,17.52
2019-04-11T09:44:09.202Z,18.12
2019-04-11T09:47:32.633Z,18.52
2019-04-11T09:51:09.441Z,17.12
2019-04-11T09:54:30.888Z,17.55
2019-04-11T09:57:41.811Z,16.50
2019-04-11T10:00:57.943Z,16.42
2019-04-11T10:04:12.886Z,16.60
2019-04-11T10:07:39.864Z,17.65
2019-04-11T10:11:10.124Z,15.88
2019-04-11T10:14:17.783Z,15.32
2019-04-11T10:17:38.060Z,16.00
2019-04-11T10:20:40.507Z,15.25
2019-04-11T10:24:02.965Z,15.15
2019-04-11T10:27:09.735Z,15.32
2019-04-11T10:30:34.535Z,15.23
2019-04-11T10:33:50.180Z,15.55
2019-04-11T10:37:13.726Z,14.10
2019-04-11T10:40:32.223Z,14.83
2019-04-11T10:43:37.275Z,14.90
2019-04-11T10:47:02.596Z,15.00
2019-04-11T10:51:06.617Z,14.58
2019-04-11T10:54:15.497Z,15.00
2019-04-11T11:01:36.445Z,14.03
2019-04-11T11:04:38.780Z,13.22
2019-04-11T11:07:42.507Z,12.53
2019-04-11T11:11:14.757Z,13.75
2019-04-11T11:14:27.022Z,14.40
2019-04-11T11:17:54.617Z,14.50
2019-04-11T11:20:57.148Z,13.30
2019-04-11T11:24:08.676Z,12.53
2019-04-11T11:27:09.479Z,13.08
2019-04-11T11:30:31.459Z,11.22
2019-04-11T11:33:39.147Z,11.65
2019-04-11T11:36:58.614Z,11.38
2019-04-11T11:40:18.877Z,11.03
2019-04-11T11:43:27.656Z,9.73
2019-04-11T11:46:55.282Z,9.95
2019-04-11T11:50:00.162Z,9.78
2019-04-11T11:53:12.672Z,8.88
2019-04-11T11:56:05.804Z,9.25
2019-04-11T11:59:18.148Z,8.90
2019-04-11T12:02:40.967Z,8.85
2019-04-11T12:05:48.578Z,8.00
2019-04-11T12:09:07.010Z,9.15
2019-04-11T12:12:12.037Z,8.25
2019-04-11T12:15:39.323Z,9.28
2019-04-11T12:18:53.129Z,10.13
2019-04-11T12:21:48.936Z,11.10
2019-04-11T12:24:53.691Z,10.35
2019-04-11T12:28:00.977Z,9.10
2019-04-11T12:31:03.720Z,8.00
2019-04-11T12:34:34.847Z,7.30
2019-04-11T12:37:38.808Z,6.92
2019-04-11T12:40:51.271Z,5.70
2019-04-11T13:06:36.712Z,7.78
2019-04-11T13:09:52.782Z,8.45
2019-04-11T13:13:20.584Z,9.70
2019-04-11T13:16:17.666Z,9.93
2019-04-11T13:19:32.513Z,10.93
2019-04-11T13:22:28.495Z,11.30
2019-04-11T13:25:59.519Z,10.75
2019-04-11T13:29:06.694Z,11.90
2019-04-11T13:32:20.926Z,13.60
2019-04-11T13:35:32.459Z,14.07
2019-04-11T13:38:34.378Z,13.70
2019-04-11T13:41:55.632Z,14.15
2019-04-11T13:44:50.520Z,13.85
2019-04-11T13:47:47.053Z,14.15
2019-04-11T13:50:42.554Z,14.30
2019-04-11T13:54:02.690Z,13.75
2019-04-11T13:57:15.596Z,14.50
2019-04-11T14:00:28.614Z,13.85
2019-04-11T14:03:49.726Z,13.95
2019-04-11T14:06:45.916Z,13.55
2019-04-11T14:09:45.941Z,14.00
2019-04-11T14:12:43.800Z,13.68
2019-04-11T14:15:40.689Z,13.58
2019-04-11T14:18:45.569Z,13.30
2019-04-11T14:21:43.245Z,12.33
2019-04-11T14:25:04.910Z,12.85
2019-04-11T14:28:02.019Z,13.22
2019-04-11T14:31:22.241Z,13.72
2019-04-11T14:34:41.820Z,13.85
2019-04-11T14:37:43.697Z,13.38
2019-04-11T14:41:01.606Z,12.50
2019-04-11T14:43:57.943Z,13.22
2019-04-11T14:47:11.325Z,12.43
2019-04-11T14:50:08.785Z,11.95
2019-04-11T14:53:34.063Z,12.25
2019-04-11T14:56:28.914Z,11.85
2019-04-11T14:59:30.065Z,12.85
2019-04-11T15:02:31.069Z,12.23
2019-04-11T15:05:37.171Z,11.97
2019-04-11T15:08:49.374Z,12.20
2019-04-11T15:12:06.792Z,11.93
2019-04-11T15:15:25.998Z,11.60
2019-04-11T15:18:26.523Z,11.93
2019-04-11T15:21:38.539Z,11.50
2019-04-11T15:24:37.459Z,11.97
2019-04-11T15:27:56.399Z,12.40
2019-04-11T15:30:55.036Z,12.10
2019-04-11T15:34:07.353Z,11.73
2019-04-11T15:37:16.659Z,11.75
2019-04-11T15:40:17.203Z,10.63
2019-04-11T15:43:42.217Z,11.70
2019-04-11T15:46:36.776Z,11.35
2019-04-11T15:49:54.576Z,11.80
2019-04-11T15:52:55.834Z,11.35
2019-04-11T15:56:27.913Z,11.68
2019-04-11T15:59:58.963Z,10.95
2019-04-11T16:03:10.207Z,11.18
2019-04-11T16:06:21.681Z,11.35
2019-04-11T16:09:20.023Z,12.07
2019-04-11T16:12:29.310Z,10.82
2019-04-11T16:15:23.965Z,11.05
2019-04-11T16:18:39.394Z,12.07
2019-04-11T16:21:44.699Z,11.22
2019-04-11T16:24:39.097Z,11.68
2019-04-11T16:27:50.555Z,12.35
2019-04-11T16:30:53.457Z,12.45
2019-04-11T16:34:04.294Z,11.80
2019-04-11T16:37:01.797Z,11.95
2019-04-11T16:40:17.531Z,12.25
2019-04-11T16:43:11.921Z,11.78
2019-04-11T16:46:37.015Z,11.57
2019-04-11T16:49:31.587Z,10.70
2019-04-11T16:52:26.779Z,12.15
2019-04-11T16:55:21.578Z,11.12
2019-04-11T16:58:19.481Z,12.13
2019-04-11T17:01:12.904Z,10.45
2019-04-11T17:04:08.739Z,10.15
2019-04-11T17:07:13.660Z,11.38
2019-04-11T17:10:08.625Z,11.30
2019-04-11T17:13:03.180Z,9.65
2019-04-11T17:15:59.859Z,9.75
2019-04-11T17:18:53.910Z,9.70
2019-04-11T17:21:48.965Z,9.15
2019-04-11T17:24:47.798Z,9.55
2019-04-11T17:27:41.065Z,9.75
2019-04-11T17:30:35.577Z,8.95
2019-04-11T17:33:30.148Z,8.90
2019-04-11T17:36:24.667Z,8.65
2019-04-11T17:39:19.647Z,9.15
2019-04-11T17:42:14.627Z,8.60
2019-04-11T17:45:10.439Z,8.58
2019-04-11T17:48:05.449Z,8.48
2019-04-11T17:51:04.648Z,8.43
2019-04-11T17:53:56.604Z,8.05
2019-04-11T17:56:54.557Z,8.43
2019-04-11T17:59:48.711Z,8.90
2019-04-11T18:02:46.250Z,8.55
2019-04-11T18:05:41.429Z,7.62
2019-04-11T18:08:36.469Z,7.95
2019-04-11T18:11:31.791Z,7.92
2019-04-11T18:14:28.898Z,8.08
2019-04-11T18:17:22.571Z,8.30
2019-04-11T18:20:17.076Z,8.00
2019-04-11T18:23:11.983Z,8.20
2019-04-11T18:26:07.897Z,8.60
2019-04-11T18:29:02.872Z,8.00
2019-04-11T18:31:57.626Z,7.95
2019-04-11T18:34:52.191Z,7.70
2019-04-11T18:37:47.230Z,8.15
2019-04-11T18:40:42.158Z,8.35
2019-04-11T18:43:36.656Z,7.92
2019-04-11T18:46:31.340Z,9.08
2019-04-11T18:49:25.497Z,8.55
2019-04-11T18:52:20.240Z,8.00
2019-04-11T18:55:15.929Z,7.97
2019-04-11T18:58:10.466Z,8.18
2019-04-11T19:01:09.070Z,8.48
2019-04-11T19:04:03.664Z,8.40
2019-04-11T19:06:58.149Z,8.75
2019-04-11T19:09:53.096Z,8.20
2019-04-11T19:12:48.523Z,8.45
2019-04-11T19:15:45.493Z,7.62
2019-04-11T19:18:40.036Z,7.85
2019-04-11T19:21:34.648Z,8.40
2019-04-11T19:24:35.324Z,8.28
2019-04-11T19:27:25.135Z,7.90
2019-04-11T19:30:19.903Z,7.75
2019-04-11T19:33:19.089Z,8.43
2019-04-11T19:36:12.902Z,7.67
2019-04-11T19:39:13.464Z,7.65
2019-04-11T19:42:08.781Z,7.55
2019-04-11T19:45:02.886Z,7.78
2019-04-11T19:47:58.755Z,7.22
2019-04-11T19:50:53.503Z,7.83
2019-04-11T19:53:48.183Z,7.85
2019-04-11T19:56:47.689Z,7.58
2019-04-11T19:59:42.731Z,7.75
2019-04-11T20:02:38.631Z,7.75
2019-04-11T20:05:33.973Z,7.58
2019-04-11T20:08:28.686Z,7.97
2019-04-11T20:11:23.371Z,8.38
2019-04-11T20:14:18.371Z,8.00
2019-04-11T20:17:13.116Z,8.03
2019-04-11T20:20:08.146Z,8.65
2019-04-11T20:23:02.991Z,8.28
2019-04-11T20:25:57.638Z,7.90
2019-04-11T20:28:52.378Z,8.65
2019-04-11T20:31:46.518Z,8.45
2019-04-11T20:34:41.090Z,8.60
2019-04-11T20:37:39.342Z,8.55
2019-04-11T20:40:32.733Z,8.53
2019-04-11T20:43:27.904Z,7.80
2019-04-11T20:46:22.065Z,7.35
2019-04-11T20:49:16.861Z,7.85
2019-04-11T20:52:11.386Z,7.47
2019-04-11T20:55:08.891Z,7.90
2019-04-11T20:58:01.881Z,8.28
2019-04-11T21:00:56.764Z,7.78
2019-04-11T21:03:51.834Z,7.78
2019-04-11T21:06:46.495Z,7.70
2019-04-11T21:09:41.035Z,7.28
2019-04-11T21:12:37.262Z,7.47
2019-04-11T21:15:31.305Z,7.47
2019-04-11T21:18:26.331Z,7.03
2019-04-11T21:21:22.850Z,7.03
2019-04-11T21:24:16.434Z,7.40
2019-04-11T21:27:10.957Z,7.42
2019-04-11T21:30:06.155Z,7.15
2019-04-11T21:33:01.117Z,7.58
2019-04-11T21:35:56.822Z,7.30
2019-04-11T21:38:51.457Z,7.30
2019-04-11T21:41:46.447Z,7.22
2019-04-11T21:44:41.365Z,7.28
2019-04-11T21:47:37.396Z,7.08
2019-04-11T21:50:32.107Z,6.90
2019-04-11T21:53:36.094Z,6.80
2019-04-11T21:56:22.132Z,7.60
2019-04-11T21:59:20.095Z,7.17
2019-04-11T22:02:14.312Z,6.85
2019-04-11T22:05:09.347Z,6.37
2019-04-11T22:08:05.012Z,7.12
2019-04-11T22:10:59.849Z,7.00
2019-04-11T22:13:54.783Z,7.22
2019-04-11T22:16:49.596Z,7.15
2019-04-11T22:19:45.712Z,6.97
2019-04-11T22:22:40.634Z,6.95
2019-04-11T22:25:35.380Z,6.95
2019-04-11T22:28:30.456Z,7.20
2019-04-11T22:31:25.699Z,7.35
2019-04-11T22:34:31.855Z,6.95
2019-04-11T22:37:27.763Z,7.20
2019-04-11T22:40:21.824Z,7.12
2019-04-11T22:43:24.103Z,6.85
2019-04-11T22:46:20.294Z,6.58
2019-04-11T22:49:08.875Z,6.78
2019-04-11T22:52:05.764Z,7.25
2019-04-11T22:55:01.357Z,6.85
2019-04-11T22:57:56.909Z,6.85
2019-04-11T23:00:52.338Z,7.08
2019-04-11T23:04:06.615Z,6.87
2019-04-11T23:07:01.866Z,6.70
2019-04-11T23:09:56.697Z,6.37
2019-04-11T23:12:51.797Z,6.60
2019-04-11T23:15:47.183Z,6.67
2019-04-11T23:18:44.247Z,6.55
2019-04-11T23:21:42.142Z,7.17
2019-04-11T23:24:36.312Z,6.90
2019-04-11T23:27:31.945Z,6.67
2019-04-11T23:30:27.531Z,6.78
2019-04-11T23:33:22.678Z,6.62
2019-04-11T23:36:18.774Z,6.72
2019-04-11T23:39:14.398Z,6.05
2019-04-11T23:42:09.889Z,6.25
2019-04-11T23:45:05.260Z,6.30
2019-04-11T23:48:01.173Z,7.10
2019-04-11T23:50:56.642Z,6.80
2019-04-11T23:53:51.466Z,6.40
2019-04-11T23:56:46.969Z,6.17
2019-04-11T23:59:42.243Z,6.47
